• Join FlightAware (Why Join?)
  • Login
  • US Flag 
01:42AM EST


 

Airport Tracker/Info


-or-


 

Live Flight TrackerFlight Track Log ✈ N7386R ✈ 15-May-2013 ✈ KOLV - KCWS

Flight Track Log - Related Links

Times and Time Zones

All times are in EDT time to prevent confusion due to time zone crossing. See the N7386R flight status page for this flight to view local times or setup timezone preferences in your user account.

Time Position Orientation Groundspeed Altitude Reporting Facility
EDT Latitude Longitude Course Direction KTS MPH feet Rate Location/Type
07:05PM 34.9667 -89.7833 39° Northeast 100 115 800  Level KMEM
07:05PM 34.9833 -89.7667 39° Northeast 158 182 1,400 1,140 Climbing KMEM
07:06PM 35.0000 -89.7500 39° Northeast 128 147 2,600 1,080 Climbing KMEM
07:07PM 35.0333 -89.7333 22° Northeast 124 143 3,600 660 Climbing KMEM
07:08PM 35.0667 -89.7500 338° Northwest 128 147 4,000 240 Climbing KMEM
07:09PM 35.0667 -89.8000 270° West 150 173 4,100 420 Climbing KMEM
07:11PM 35.0667 -89.8500 270° West 122 140 4,900 660 Climbing KMEM
07:12PM 35.0667 -89.9000 270° West 124 143 5,500 600 Climbing KMEM
07:13PM 35.0833 -89.9500 292° West 132 152 6,200 540 Climbing KMEM
07:14PM 35.0833 -89.9833 270° West 135 155 6,700 540 Climbing KMEM
07:15PM 35.0833 -90.0333 270° West 133 153 7,300 540 Climbing KMEM
07:16PM 35.0833 -90.0667 270° West 132 152 7,700 420 Climbing KMEM
07:17PM 35.0667 -90.1167 248° West 135 155 8,100 120 Climbing KMEM
07:18PM 35.0833 -90.1667 292° West 162 186 8,000 -60 Descending KMEM
07:19PM 35.0833 -90.2333 270° West 165 190 8,000  Level KMEM
07:20PM 35.0833 -90.2833 270° West 168 193 8,000  Level KMEM
07:21PM 35.0761 -90.3747 265° West 178 205 8,000  Level Memphis Center
07:22PM 35.0803 -90.4331 275° West 178 205 8,100  Climbing Memphis Center
07:23PM 35.0783 -90.4942 268° West 178 205 8,000 -60 Descending Memphis Center
07:24PM 35.0803 -90.5500 272° West 173 199 8,000  Level Memphis Center
07:25PM 35.0803 -90.6033 270° West 163 188 8,000  Level Memphis Center
07:26PM 35.0822 -90.6592 272° West 163 188 8,000  Level Memphis Center
07:27PM 35.0819 -90.7147 270° West 163 188 8,000  Level Memphis Center
07:28PM 35.0817 -90.7733 270° West 158 182 8,000  Level Memphis Center
07:29PM 35.0817 -90.8264 270° West 158 182 8,000  Level Memphis Center
07:30PM 35.0833 -90.8822 272° West 158 182 8,000  Level Memphis Center
07:31PM 35.0833 -90.9406 270° West 163 188 8,000  Level Memphis Center
07:32PM 35.0831 -90.9939 270° West 163 188 8,000  Level Memphis Center
07:33PM 35.0869 -91.0500 275° West 163 188 8,000 -60 Level Memphis Center
07:34PM 35.0822 -91.1081 264° West 168 193 7,900 -60 Descending Memphis Center
07:35PM 35.0819 -91.1614 270° West 171 197 7,900  Level Memphis Center
07:36PM 35.0817 -91.2275 270° West 169 194 7,900  Level Memphis Center
07:37PM 35.0811 -91.2808 269° West 169 194 7,900  Level Memphis Center
07:38PM 35.0850 -91.3417 274° West 169 194 7,900  Level Memphis Center
07:39PM 35.0844 -91.4000 269° West 168 193 7,900  Level Memphis Center
07:40PM 35.0839 -91.4508 269° West 167 192 7,900  Level Memphis Center
07:41PM 35.0856 -91.5117 272° West 178 205 8,000 -300 Climbing Memphis Center
07:42PM 35.0869 -91.5725 272° West 178 205 7,300 -600 Descending Memphis Center
07:43PM 35.0844 -91.6208 266° West 183 211 6,900 -720 Descending Memphis Center
07:44PM 35.0839 -91.6842 269° West 179 206 6,100 -600 Descending Memphis Center
07:45PM 35.0872 -91.7528 273° West 178 205 5,600 -600 Descending Memphis Center
07:46PM 35.0825 -91.7983 263° West 170 196 4,900 -660 Descending Memphis Center
07:47PM 35.0839 -91.8569 272° West 161 185 4,400 -540 Descending Memphis Center
07:48PM 35.0811 -91.9100 266° West 161 185 3,900 -240 Descending Memphis Center
07:49PM 35.0867 -91.9686 277° West 155 178 3,900 -300 Level Memphis Center
07:50PM 35.0819 -92.0142 263° West 154 177 3,400 -540 Descending Memphis Center
07:51PM 35.0811 -92.0700 269° West 161 185 2,900 -600 Descending Memphis Center
07:52PM 35.0803 -92.1308 269° West 166 191 2,200 -720 Descending Memphis Center
07:54PM 35.0667 -92.1965 270° West  Level FlightAware Approximate
08:01PM 35.0667 -92.4167 270° West  Level FlightAware Approximate
08:02PM 35.0810 -92.4245 270° West  Level Estimated